sensor_id;sensor_type;location;lat;lon;timestamp;pressure;altitude;pressure_sealevel;temperature;humidity
74218;BME280;62579;47.288;18.646;2023-04-24T00:00:41;99116.31;;;12.35;69.00
74218;BME280;62579;47.288;18.646;2023-04-24T00:03:07;99114.41;;;12.43;68.84
74218;BME280;62579;47.288;18.646;2023-04-24T00:05:32;99106.56;;;12.52;68.79
74218;BME280;62579;47.288;18.646;2023-04-24T00:07:58;99115.00;;;12.75;68.01
74218;BME280;62579;47.288;18.646;2023-04-24T00:10:23;99115.81;;;12.83;67.35
74218;BME280;62579;47.288;18.646;2023-04-24T00:12:49;99117.37;;;12.92;66.99
74218;BME280;62579;47.288;18.646;2023-04-24T00:15:14;99113.16;;;13.04;66.42
74218;BME280;62579;47.288;18.646;2023-04-24T00:17:39;99112.72;;;13.13;66.57
74218;BME280;62579;47.288;18.646;2023-04-24T00:20:05;99116.56;;;13.31;67.27
74218;BME280;62579;47.288;18.646;2023-04-24T00:22:31;99105.06;;;13.53;67.84
74218;BME280;62579;47.288;18.646;2023-04-24T00:24:57;99097.53;;;13.66;69.67
74218;BME280;62579;47.288;18.646;2023-04-24T00:27:22;99085.87;;;13.66;71.26
74218;BME280;62579;47.288;18.646;2023-04-24T00:29:47;99084.72;;;13.61;72.84
74218;BME280;62579;47.288;18.646;2023-04-24T00:32:13;99079.81;;;13.60;74.10
74218;BME280;62579;47.288;18.646;2023-04-24T00:34:38;99078.69;;;13.55;74.70
74218;BME280;62579;47.288;18.646;2023-04-24T00:37:04;99082.53;;;13.60;74.21
74218;BME280;62579;47.288;18.646;2023-04-24T00:39:29;99091.06;;;13.56;74.46
74218;BME280;62579;47.288;18.646;2023-04-24T00:41:54;99081.94;;;13.54;73.77
74218;BME280;62579;47.288;18.646;2023-04-24T00:44:20;99074.81;;;13.51;73.93
74218;BME280;62579;47.288;18.646;2023-04-24T00:46:45;99069.69;;;13.47;74.26
74218;BME280;62579;47.288;18.646;2023-04-24T00:49:10;99066.09;;;13.52;73.56
74218;BME280;62579;47.288;18.646;2023-04-24T00:51:36;99046.94;;;13.52;73.89
74218;BME280;62579;47.288;18.646;2023-04-24T00:54:02;99052.00;;;13.48;74.49
74218;BME280;62579;47.288;18.646;2023-04-24T00:56:27;99037.03;;;13.42;74.56
74218;BME280;62579;47.288;18.646;2023-04-24T00:58:53;99039.03;;;13.41;73.49
74218;BME280;62579;47.288;18.646;2023-04-24T01:01:21;99033.56;;;13.41;73.70
74218;BME280;62579;47.288;18.646;2023-04-24T01:03:47;99040.16;;;13.46;73.71
74218;BME280;62579;47.288;18.646;2023-04-24T01:06:14;99031.72;;;13.36;74.82
74218;BME280;62579;47.288;18.646;2023-04-24T01:08:39;99036.88;;;13.27;76.74
74218;BME280;62579;47.288;18.646;2023-04-24T01:11:05;99028.50;;;13.24;76.67
74218;BME280;62579;47.288;18.646;2023-04-24T01:13:31;99041.09;;;13.28;75.38
74218;BME280;62579;47.288;18.646;2023-04-24T01:15:56;99026.03;;;13.34;72.72
74218;BME280;62579;47.288;18.646;2023-04-24T01:18:21;99028.62;;;13.40;71.99
74218;BME280;62579;47.288;18.646;2023-04-24T01:20:46;99032.13;;;13.48;71.45
74218;BME280;62579;47.288;18.646;2023-04-24T01:23:14;99022.69;;;13.49;72.09
74218;BME280;62579;47.288;18.646;2023-04-24T01:25:40;99022.81;;;13.43;71.44
74218;BME280;62579;47.288;18.646;2023-04-24T01:28:05;99019.53;;;13.45;71.32
74218;BME280;62579;47.288;18.646;2023-04-24T01:30:30;99013.56;;;13.46;71.83
74218;BME280;62579;47.288;18.646;2023-04-24T01:32:56;99015.69;;;13.40;71.62
74218;BME280;62579;47.288;18.646;2023-04-24T01:35:22;99013.69;;;13.41;71.44
74218;BME280;62579;47.288;18.646;2023-04-24T01:37:47;99003.31;;;13.39;71.56
74218;BME280;62579;47.288;18.646;2023-04-24T01:40:12;98997.63;;;13.37;72.54
74218;BME280;62579;47.288;18.646;2023-04-24T01:42:37;98993.31;;;13.42;72.62
74218;BME280;62579;47.288;18.646;2023-04-24T01:45:03;98994.16;;;13.37;72.98
74218;BME280;62579;47.288;18.646;2023-04-24T01:47:29;98994.91;;;13.37;73.08
74218;BME280;62579;47.288;18.646;2023-04-24T01:49:55;98988.16;;;13.38;72.71
74218;BME280;62579;47.288;18.646;2023-04-24T01:52:20;98985.38;;;13.31;73.25
74218;BME280;62579;47.288;18.646;2023-04-24T01:54:45;98983.16;;;13.29;73.10
74218;BME280;62579;47.288;18.646;2023-04-24T01:57:10;98978.84;;;13.34;71.55
74218;BME280;62579;47.288;18.646;2023-04-24T01:59:36;98978.50;;;13.37;70.46
74218;BME280;62579;47.288;18.646;2023-04-24T02:02:02;98983.28;;;13.44;69.75
74218;BME280;62579;47.288;18.646;2023-04-24T02:04:27;98984.75;;;13.45;69.39
74218;BME280;62579;47.288;18.646;2023-04-24T02:06:52;98986.97;;;13.47;69.07
74218;BME280;62579;47.288;18.646;2023-04-24T02:09:17;98991.91;;;13.56;69.01
74218;BME280;62579;47.288;18.646;2023-04-24T02:11:43;98988.31;;;13.61;68.26
74218;BME280;62579;47.288;18.646;2023-04-24T02:14:08;98991.25;;;13.63;68.45
74218;BME280;62579;47.288;18.646;2023-04-24T02:16:33;98991.91;;;13.56;67.79
74218;BME280;62579;47.288;18.646;2023-04-24T02:19:00;98988.53;;;13.63;67.94
74218;BME280;62579;47.288;18.646;2023-04-24T02:21:26;98998.75;;;13.70;67.24
74218;BME280;62579;47.288;18.646;2023-04-24T02:23:52;98987.97;;;13.64;67.44
74218;BME280;62579;47.288;18.646;2023-04-24T02:26:17;98990.34;;;13.60;66.48
74218;BME280;62579;47.288;18.646;2023-04-24T02:28:43;98994.50;;;13.61;66.74
74218;BME280;62579;47.288;18.646;2023-04-24T02:31:08;98987.03;;;13.62;66.98
74218;BME280;62579;47.288;18.646;2023-04-24T02:33:33;98991.81;;;13.69;66.59
74218;BME280;62579;47.288;18.646;2023-04-24T02:35:59;98983.31;;;13.80;66.32
74218;BME280;62579;47.288;18.646;2023-04-24T02:38:24;98982.06;;;13.81;66.54
74218;BME280;62579;47.288;18.646;2023-04-24T02:40:49;98975.69;;;13.86;66.58
74218;BME280;62579;47.288;18.646;2023-04-24T02:43:14;98984.88;;;13.96;66.67
74218;BME280;62579;47.288;18.646;2023-04-24T02:45:40;98976.75;;;13.75;68.01
74218;BME280;62579;47.288;18.646;2023-04-24T02:48:05;98974.00;;;13.75;67.99
74218;BME280;62579;47.288;18.646;2023-04-24T02:50:30;98982.34;;;13.70;68.62
74218;BME280;62579;47.288;18.646;2023-04-24T02:52:56;98976.00;;;13.75;68.38
74218;BME280;62579;47.288;18.646;2023-04-24T02:55:21;98979.66;;;13.77;68.33
74218;BME280;62579;47.288;18.646;2023-04-24T02:57:47;98961.25;;;13.78;68.55
74218;BME280;62579;47.288;18.646;2023-04-24T03:00:12;98960.47;;;13.70;69.23
74218;BME280;62579;47.288;18.646;2023-04-24T03:02:38;98966.94;;;13.52;69.68
74218;BME280;62579;47.288;18.646;2023-04-24T03:05:03;98958.81;;;13.67;69.04
74218;BME280;62579;47.288;18.646;2023-04-24T03:07:29;98954.28;;;13.69;68.74
74218;BME280;62579;47.288;18.646;2023-04-24T03:09:54;98947.84;;;13.59;69.28
74218;BME280;62579;47.288;18.646;2023-04-24T03:12:20;98951.03;;;13.43;70.42
74218;BME280;62579;47.288;18.646;2023-04-24T03:14:48;98942.63;;;13.41;70.73
74218;BME280;62579;47.288;18.646;2023-04-24T03:17:13;98943.41;;;13.49;70.67
74218;BME280;62579;47.288;18.646;2023-04-24T03:19:39;98944.38;;;13.59;70.46
74218;BME280;62579;47.288;18.646;2023-04-24T03:22:04;98948.25;;;13.63;70.52
74218;BME280;62579;47.288;18.646;2023-04-24T03:24:29;98951.44;;;13.47;71.63
74218;BME280;62579;47.288;18.646;2023-04-24T03:26:55;98946.06;;;13.34;72.12
74218;BME280;62579;47.288;18.646;2023-04-24T03:29:21;98947.66;;;13.29;72.52
74218;BME280;62579;47.288;18.646;2023-04-24T03:31:46;98941.53;;;13.36;71.94
74218;BME280;62579;47.288;18.646;2023-04-24T03:34:12;98938.47;;;13.19;72.94
74218;BME280;62579;47.288;18.646;2023-04-24T03:36:37;98937.41;;;13.22;72.38
74218;BME280;62579;47.288;18.646;2023-04-24T03:39:02;98939.94;;;13.20;72.75
74218;BME280;62579;47.288;18.646;2023-04-24T03:41:28;98937.88;;;13.34;72.26
74218;BME280;62579;47.288;18.646;2023-04-24T03:43:55;98945.19;;;13.39;72.13
74218;BME280;62579;47.288;18.646;2023-04-24T03:46:20;98937.66;;;13.32;72.22
74218;BME280;62579;47.288;18.646;2023-04-24T03:48:45;98949.56;;;13.42;71.71
74218;BME280;62579;47.288;18.646;2023-04-24T03:51:10;98952.97;;;13.35;72.10
74218;BME280;62579;47.288;18.646;2023-04-24T03:53:35;98943.50;;;13.36;72.91
74218;BME280;62579;47.288;18.646;2023-04-24T03:56:01;98945.66;;;13.30;72.94
74218;BME280;62579;47.288;18.646;2023-04-24T03:58:26;98948.28;;;13.14;72.94
74218;BME280;62579;47.288;18.646;2023-04-24T04:00:51;98947.00;;;13.15;72.58
74218;BME280;62579;47.288;18.646;2023-04-24T04:03:16;98941.34;;;13.13;72.58
74218;BME280;62579;47.288;18.646;2023-04-24T04:05:42;98944.69;;;12.99;72.99
74218;BME280;62579;47.288;18.646;2023-04-24T04:08:07;98942.41;;;13.10;72.66
74218;BME280;62579;47.288;18.646;2023-04-24T04:10:32;98946.69;;;13.19;72.11
74218;BME280;62579;47.288;18.646;2023-04-24T04:12:57;98948.94;;;13.28;71.88
74218;BME280;62579;47.288;18.646;2023-04-24T04:15:22;98952.59;;;13.10;73.60
74218;BME280;62579;47.288;18.646;2023-04-24T04:17:48;98948.25;;;12.94;73.91
74218;BME280;62579;47.288;18.646;2023-04-24T04:20:13;98953.75;;;13.14;73.32
74218;BME280;62579;47.288;18.646;2023-04-24T04:22:38;98946.72;;;13.06;74.42
74218;BME280;62579;47.288;18.646;2023-04-24T04:25:04;98947.53;;;12.93;74.51
74218;BME280;62579;47.288;18.646;2023-04-24T04:27:30;98939.22;;;12.99;75.08
74218;BME280;62579;47.288;18.646;2023-04-24T04:29:57;98952.94;;;13.06;74.63
74218;BME280;62579;47.288;18.646;2023-04-24T04:32:22;98950.47;;;13.16;73.94
74218;BME280;62579;47.288;18.646;2023-04-24T04:34:48;98937.47;;;12.88;75.67
74218;BME280;62579;47.288;18.646;2023-04-24T04:37:14;98947.59;;;12.80;76.12
74218;BME280;62579;47.288;18.646;2023-04-24T04:39:39;98952.53;;;13.02;75.44
74218;BME280;62579;47.288;18.646;2023-04-24T04:42:05;98947.19;;;12.97;75.80
74218;BME280;62579;47.288;18.646;2023-04-24T04:44:31;98939.53;;;12.95;76.37
74218;BME280;62579;47.288;18.646;2023-04-24T04:46:56;98939.28;;;13.06;75.99
74218;BME280;62579;47.288;18.646;2023-04-24T04:49:22;98937.19;;;12.99;76.31
74218;BME280;62579;47.288;18.646;2023-04-24T04:51:48;98943.22;;;12.98;76.96
74218;BME280;62579;47.288;18.646;2023-04-24T04:54:14;98948.94;;;13.07;76.37
74218;BME280;62579;47.288;18.646;2023-04-24T04:56:39;98942.13;;;13.21;75.81
74218;BME280;62579;47.288;18.646;2023-04-24T04:59:05;98946.12;;;13.20;75.91
74218;BME280;62579;47.288;18.646;2023-04-24T05:01:31;98939.00;;;12.97;77.06
74218;BME280;62579;47.288;18.646;2023-04-24T05:03:56;98937.75;;;12.98;77.13
74218;BME280;62579;47.288;18.646;2023-04-24T05:06:21;98934.53;;;12.86;77.94
74218;BME280;62579;47.288;18.646;2023-04-24T05:08:46;98944.41;;;12.89;78.09
74218;BME280;62579;47.288;18.646;2023-04-24T05:11:12;98945.47;;;12.86;78.30
74218;BME280;62579;47.288;18.646;2023-04-24T05:13:37;98932.50;;;12.79;79.14
74218;BME280;62579;47.288;18.646;2023-04-24T05:16:02;98943.81;;;12.83;78.83
74218;BME280;62579;47.288;18.646;2023-04-24T05:18:27;98945.81;;;12.83;79.37
74218;BME280;62579;47.288;18.646;2023-04-24T05:20:53;98944.03;;;12.85;79.36
74218;BME280;62579;47.288;18.646;2023-04-24T05:23:18;98945.53;;;12.94;79.26
74218;BME280;62579;47.288;18.646;2023-04-24T05:25:43;98946.53;;;12.83;79.37
74218;BME280;62579;47.288;18.646;2023-04-24T05:28:08;98950.34;;;13.01;79.25
74218;BME280;62579;47.288;18.646;2023-04-24T05:30:33;98954.72;;;13.04;78.83
74218;BME280;62579;47.288;18.646;2023-04-24T05:32:58;98966.38;;;13.04;79.30
74218;BME280;62579;47.288;18.646;2023-04-24T05:35:24;98963.63;;;13.04;80.02
74218;BME280;62579;47.288;18.646;2023-04-24T05:37:49;98958.19;;;13.04;80.15
74218;BME280;62579;47.288;18.646;2023-04-24T05:40:14;98953.69;;;13.07;80.37
74218;BME280;62579;47.288;18.646;2023-04-24T05:42:40;98946.31;;;13.02;81.01
74218;BME280;62579;47.288;18.646;2023-04-24T05:45:05;98952.13;;;12.98;81.82
74218;BME280;62579;47.288;18.646;2023-04-24T05:47:30;98958.41;;;13.06;81.94
74218;BME280;62579;47.288;18.646;2023-04-24T05:49:56;98954.31;;;13.20;81.32
74218;BME280;62579;47.288;18.646;2023-04-24T05:52:21;98951.22;;;13.16;81.64
74218;BME280;62579;47.288;18.646;2023-04-24T05:54:46;98953.47;;;13.26;81.39
74218;BME280;62579;47.288;18.646;2023-04-24T05:57:11;98953.12;;;13.29;80.54
74218;BME280;62579;47.288;18.646;2023-04-24T05:59:37;98957.78;;;13.42;80.26
74218;BME280;62579;47.288;18.646;2023-04-24T06:02:06;98956.59;;;13.58;79.53
74218;BME280;62579;47.288;18.646;2023-04-24T06:04:31;98950.97;;;13.63;78.60
74218;BME280;62579;47.288;18.646;2023-04-24T06:06:56;98943.72;;;13.66;78.44
74218;BME280;62579;47.288;18.646;2023-04-24T06:09:22;98949.25;;;13.81;78.20
74218;BME280;62579;47.288;18.646;2023-04-24T06:11:48;98947.63;;;13.85;78.51
74218;BME280;62579;47.288;18.646;2023-04-24T06:14:13;98956.63;;;14.01;77.99
74218;BME280;62579;47.288;18.646;2023-04-24T06:16:40;98948.25;;;14.07;77.45
74218;BME280;62579;47.288;18.646;2023-04-24T06:19:05;98954.09;;;14.03;77.57
74218;BME280;62579;47.288;18.646;2023-04-24T06:21:30;98954.63;;;14.09;77.25
74218;BME280;62579;47.288;18.646;2023-04-24T06:23:56;98948.09;;;14.12;77.05
74218;BME280;62579;47.288;18.646;2023-04-24T06:26:21;98943.75;;;14.17;78.39
74218;BME280;62579;47.288;18.646;2023-04-24T06:28:47;98950.22;;;13.99;78.62
74218;BME280;62579;47.288;18.646;2023-04-24T06:31:12;98948.59;;;13.96;78.59
74218;BME280;62579;47.288;18.646;2023-04-24T06:33:37;98938.88;;;13.87;78.47
74218;BME280;62579;47.288;18.646;2023-04-24T06:36:03;98940.41;;;14.03;77.77
74218;BME280;62579;47.288;18.646;2023-04-24T06:38:29;98936.34;;;13.89;77.93
74218;BME280;62579;47.288;18.646;2023-04-24T06:40:54;98939.50;;;14.01;78.51
74218;BME280;62579;47.288;18.646;2023-04-24T06:43:19;98951.13;;;14.01;77.98
74218;BME280;62579;47.288;18.646;2023-04-24T06:45:45;98947.00;;;14.15;78.20
74218;BME280;62579;47.288;18.646;2023-04-24T06:48:12;98949.25;;;14.24;78.14
74218;BME280;62579;47.288;18.646;2023-04-24T06:50:37;98945.31;;;14.40;77.82
74218;BME280;62579;47.288;18.646;2023-04-24T06:53:02;98947.31;;;14.48;78.24
74218;BME280;62579;47.288;18.646;2023-04-24T06:55:27;98947.53;;;14.65;77.37
74218;BME280;62579;47.288;18.646;2023-04-24T06:57:52;98946.63;;;14.70;77.73
74218;BME280;62579;47.288;18.646;2023-04-24T07:00:18;98943.72;;;14.90;76.71
74218;BME280;62579;47.288;18.646;2023-04-24T07:02:43;98939.16;;;14.93;76.26
74218;BME280;62579;47.288;18.646;2023-04-24T07:05:08;98935.88;;;15.10;76.37
74218;BME280;62579;47.288;18.646;2023-04-24T07:07:33;98934.59;;;15.18;76.15
74218;BME280;62579;47.288;18.646;2023-04-24T07:09:59;98933.84;;;15.40;74.62
74218;BME280;62579;47.288;18.646;2023-04-24T07:12:24;98945.34;;;15.46;74.16
74218;BME280;62579;47.288;18.646;2023-04-24T07:14:50;98946.44;;;15.58;73.36
74218;BME280;62579;47.288;18.646;2023-04-24T07:17:15;98939.88;;;15.54;72.77
74218;BME280;62579;47.288;18.646;2023-04-24T07:19:40;98948.63;;;15.52;73.89
74218;BME280;62579;47.288;18.646;2023-04-24T07:22:06;98938.78;;;15.57;73.81
74218;BME280;62579;47.288;18.646;2023-04-24T07:24:31;98931.41;;;15.67;72.58
74218;BME280;62579;47.288;18.646;2023-04-24T07:26:59;98937.66;;;15.68;72.67
74218;BME280;62579;47.288;18.646;2023-04-24T07:29:26;98944.25;;;15.57;73.14
74218;BME280;62579;47.288;18.646;2023-04-24T07:31:51;98944.44;;;15.51;73.65
74218;BME280;62579;47.288;18.646;2023-04-24T07:34:16;98953.94;;;15.58;74.42
74218;BME280;62579;47.288;18.646;2023-04-24T07:36:41;98942.59;;;15.31;76.34
74218;BME280;62579;47.288;18.646;2023-04-24T07:39:07;98953.41;;;15.29;75.95
74218;BME280;62579;47.288;18.646;2023-04-24T07:41:33;98951.91;;;15.36;75.46
74218;BME280;62579;47.288;18.646;2023-04-24T07:43:58;98945.16;;;15.44;76.09
74218;BME280;62579;47.288;18.646;2023-04-24T07:46:23;98953.03;;;15.40;75.14
74218;BME280;62579;47.288;18.646;2023-04-24T07:48:48;98954.28;;;15.54;75.03
74218;BME280;62579;47.288;18.646;2023-04-24T07:51:14;98954.28;;;15.62;73.62
74218;BME280;62579;47.288;18.646;2023-04-24T07:53:39;98959.22;;;15.63;73.71
74218;BME280;62579;47.288;18.646;2023-04-24T07:56:05;98950.03;;;15.76;73.73
74218;BME280;62579;47.288;18.646;2023-04-24T07:58:30;98951.34;;;15.68;73.58
74218;BME280;62579;47.288;18.646;2023-04-24T08:00:55;98946.16;;;15.94;73.38
74218;BME280;62579;47.288;18.646;2023-04-24T08:03:20;98938.91;;;16.14;72.49
74218;BME280;62579;47.288;18.646;2023-04-24T08:05:46;98940.19;;;16.20;71.68
74218;BME280;62579;47.288;18.646;2023-04-24T08:08:11;98940.44;;;16.40;71.04
74218;BME280;62579;47.288;18.646;2023-04-24T08:10:37;98939.88;;;16.41;72.56
74218;BME280;62579;47.288;18.646;2023-04-24T08:13:02;98935.44;;;16.53;71.31
74218;BME280;62579;47.288;18.646;2023-04-24T08:15:27;98935.50;;;16.95;69.13
74218;BME280;62579;47.288;18.646;2023-04-24T08:17:52;98923.66;;;17.10;69.51
74218;BME280;62579;47.288;18.646;2023-04-24T08:20:18;98938.53;;;17.07;68.81
74218;BME280;62579;47.288;18.646;2023-04-24T08:22:43;98926.91;;;17.16;67.47
74218;BME280;62579;47.288;18.646;2023-04-24T08:25:14;98934.31;;;17.06;68.17
74218;BME280;62579;47.288;18.646;2023-04-24T08:27:39;98933.53;;;17.13;68.18
74218;BME280;62579;47.288;18.646;2023-04-24T08:30:04;98925.00;;;17.43;67.56
74218;BME280;62579;47.288;18.646;2023-04-24T08:32:30;98925.47;;;17.49;67.12
74218;BME280;62579;47.288;18.646;2023-04-24T08:34:55;98930.09;;;17.47;67.44
74218;BME280;62579;47.288;18.646;2023-04-24T08:37:21;98936.84;;;17.53;67.59
74218;BME280;62579;47.288;18.646;2023-04-24T08:39:46;98927.53;;;17.66;66.04
74218;BME280;62579;47.288;18.646;2023-04-24T08:42:12;98931.44;;;17.80;65.87
74218;BME280;62579;47.288;18.646;2023-04-24T08:44:38;98923.22;;;17.89;65.71
74218;BME280;62579;47.288;18.646;2023-04-24T08:47:03;98921.75;;;18.06;64.55
74218;BME280;62579;47.288;18.646;2023-04-24T08:49:29;98924.78;;;18.27;64.72
74218;BME280;62579;47.288;18.646;2023-04-24T08:51:54;98932.00;;;18.22;66.49
74218;BME280;62579;47.288;18.646;2023-04-24T08:54:20;98931.63;;;18.52;64.84
74218;BME280;62579;47.288;18.646;2023-04-24T08:56:45;98923.41;;;18.45;63.15
74218;BME280;62579;47.288;18.646;2023-04-24T08:59:13;98921.38;;;18.72;61.34
74218;BME280;62579;47.288;18.646;2023-04-24T09:01:39;98928.72;;;18.96;59.10
74218;BME280;62579;47.288;18.646;2023-04-24T09:04:05;98929.91;;;19.03;59.28
74218;BME280;62579;47.288;18.646;2023-04-24T09:06:32;98924.28;;;19.10;58.08
74218;BME280;62579;47.288;18.646;2023-04-24T09:08:59;98921.81;;;19.14;57.16
74218;BME280;62579;47.288;18.646;2023-04-24T09:11:25;98925.72;;;19.11;57.64
74218;BME280;62579;47.288;18.646;2023-04-24T09:13:51;98922.66;;;19.07;57.58
74218;BME280;62579;47.288;18.646;2023-04-24T09:16:16;98916.38;;;18.88;57.83
74218;BME280;62579;47.288;18.646;2023-04-24T09:18:42;98916.59;;;19.18;58.32
74218;BME280;62579;47.288;18.646;2023-04-24T09:21:08;98915.91;;;19.37;58.04
74218;BME280;62579;47.288;18.646;2023-04-24T09:23:34;98923.91;;;19.43;57.47
74218;BME280;62579;47.288;18.646;2023-04-24T09:25:59;98911.25;;;19.30;56.12
74218;BME280;62579;47.288;18.646;2023-04-24T09:28:35;98920.69;;;19.27;57.40
74218;BME280;62579;47.288;18.646;2023-04-24T09:31:22;98909.44;;;18.96;59.03
74218;BME280;62579;47.288;18.646;2023-04-24T09:33:54;98909.94;;;18.76;60.07
74218;BME280;62579;47.288;18.646;2023-04-24T09:36:26;98911.16;;;18.92;59.32
74218;BME280;62579;47.288;18.646;2023-04-24T09:38:53;98908.59;;;19.13;57.86
74218;BME280;62579;47.288;18.646;2023-04-24T09:41:22;98914.53;;;19.09;58.36
74218;BME280;62579;47.288;18.646;2023-04-24T09:43:47;98907.28;;;19.04;59.07
74218;BME280;62579;47.288;18.646;2023-04-24T09:46:18;98907.72;;;19.10;57.47
74218;BME280;62579;47.288;18.646;2023-04-24T09:48:43;98906.97;;;19.00;55.45
74218;BME280;62579;47.288;18.646;2023-04-24T09:51:08;98909.59;;;18.98;56.04
74218;BME280;62579;47.288;18.646;2023-04-24T09:53:36;98898.94;;;18.85;55.82
74218;BME280;62579;47.288;18.646;2023-04-24T09:56:03;98903.44;;;18.81;54.15
74218;BME280;62579;47.288;18.646;2023-04-24T09:58:31;98912.72;;;18.85;53.62
74218;BME280;62579;47.288;18.646;2023-04-24T10:00:56;98914.59;;;18.83;52.98
74218;BME280;62579;47.288;18.646;2023-04-24T10:03:25;98908.19;;;18.71;52.88
74218;BME280;62579;47.288;18.646;2023-04-24T10:05:52;98916.84;;;18.57;52.56
74218;BME280;62579;47.288;18.646;2023-04-24T10:08:17;98909.88;;;18.56;53.66
74218;BME280;62579;47.288;18.646;2023-04-24T10:10:43;98910.72;;;18.49;54.10
74218;BME280;62579;47.288;18.646;2023-04-24T10:13:10;98902.81;;;18.63;55.34
74218;BME280;62579;47.288;18.646;2023-04-24T10:15:39;98906.72;;;18.70;54.82
74218;BME280;62579;47.288;18.646;2023-04-24T10:18:05;98906.13;;;18.62;54.53
74218;BME280;62579;47.288;18.646;2023-04-24T10:20:34;98901.19;;;18.60;54.94
74218;BME280;62579;47.288;18.646;2023-04-24T10:23:00;98904.50;;;18.58;55.27
74218;BME280;62579;47.288;18.646;2023-04-24T10:25:29;98895.28;;;18.73;54.63
74218;BME280;62579;47.288;18.646;2023-04-24T10:27:55;98897.66;;;18.86;54.72
74218;BME280;62579;47.288;18.646;2023-04-24T10:30:25;98891.28;;;18.93;56.72
74218;BME280;62579;47.288;18.646;2023-04-24T10:32:51;98890.47;;;19.19;54.32
74218;BME280;62579;47.288;18.646;2023-04-24T10:35:16;98886.13;;;19.36;53.86
74218;BME280;62579;47.288;18.646;2023-04-24T10:37:46;98875.41;;;19.59;54.68
74218;BME280;62579;47.288;18.646;2023-04-24T10:40:16;98875.81;;;20.03;53.35
74218;BME280;62579;47.288;18.646;2023-04-24T10:42:42;98869.66;;;20.24;50.87
74218;BME280;62579;47.288;18.646;2023-04-24T10:45:20;98866.66;;;20.51;52.64
74218;BME280;62579;47.288;18.646;2023-04-24T10:47:53;98871.03;;;20.44;52.66
74218;BME280;62579;47.288;18.646;2023-04-24T10:50:21;98876.41;;;20.52;49.91
74218;BME280;62579;47.288;18.646;2023-04-24T10:52:47;98868.03;;;20.21;50.94
74218;BME280;62579;47.288;18.646;2023-04-24T10:55:13;98869.53;;;20.53;51.03
74218;BME280;62579;47.288;18.646;2023-04-24T10:57:40;98866.81;;;20.74;49.31
74218;BME280;62579;47.288;18.646;2023-04-24T11:00:25;98858.09;;;20.77;49.71
74218;BME280;62579;47.288;18.646;2023-04-24T11:02:52;98863.22;;;20.92;48.82
74218;BME280;62579;47.288;18.646;2023-04-24T11:05:18;98857.16;;;20.84;49.18
74218;BME280;62579;47.288;18.646;2023-04-24T11:10:27;98859.22;;;20.53;49.16
74218;BME280;62579;47.288;18.646;2023-04-24T11:12:52;98837.00;;;20.72;49.40
74218;BME280;62579;47.288;18.646;2023-04-24T11:15:18;98842.47;;;21.03;49.14
74218;BME280;62579;47.288;18.646;2023-04-24T11:17:44;98846.62;;;20.92;49.18
74218;BME280;62579;47.288;18.646;2023-04-24T11:20:10;98850.00;;;20.91;48.64
74218;BME280;62579;47.288;18.646;2023-04-24T11:22:37;98845.13;;;20.80;49.26
74218;BME280;62579;47.288;18.646;2023-04-24T11:25:03;98835.31;;;20.88;49.33
74218;BME280;62579;47.288;18.646;2023-04-24T11:27:37;98842.44;;;20.91;48.41
74218;BME280;62579;47.288;18.646;2023-04-24T11:30:03;98842.91;;;21.09;48.35
74218;BME280;62579;47.288;18.646;2023-04-24T11:32:41;98840.88;;;21.10;47.76
74218;BME280;62579;47.288;18.646;2023-04-24T11:37:39;98851.94;;;21.10;48.37
74218;BME280;62579;47.288;18.646;2023-04-24T11:40:06;98849.72;;;20.87;47.37
74218;BME280;62579;47.288;18.646;2023-04-24T11:42:35;98844.81;;;21.07;48.13
74218;BME280;62579;47.288;18.646;2023-04-24T11:45:01;98845.66;;;21.30;47.70
74218;BME280;62579;47.288;18.646;2023-04-24T11:47:27;98839.44;;;21.30;47.62
74218;BME280;62579;47.288;18.646;2023-04-24T11:49:52;98847.53;;;21.37;47.91
74218;BME280;62579;47.288;18.646;2023-04-24T11:52:18;98843.81;;;21.44;47.62
74218;BME280;62579;47.288;18.646;2023-04-24T11:54:48;98841.72;;;21.33;47.93
74218;BME280;62579;47.288;18.646;2023-04-24T11:57:14;98847.53;;;21.37;47.79
74218;BME280;62579;47.288;18.646;2023-04-24T11:59:42;98841.72;;;21.33;47.18
74218;BME280;62579;47.288;18.646;2023-04-24T12:02:07;98832.94;;;21.37;47.92
74218;BME280;62579;47.288;18.646;2023-04-24T12:04:39;98834.50;;;21.07;48.33
74218;BME280;62579;47.288;18.646;2023-04-24T12:07:05;98830.25;;;21.27;47.80
74218;BME280;62579;47.288;18.646;2023-04-24T12:09:40;98825.75;;;21.43;47.75
74218;BME280;62579;47.288;18.646;2023-04-24T12:12:06;98817.94;;;21.19;48.76
74218;BME280;62579;47.288;18.646;2023-04-24T12:14:31;98827.03;;;21.31;48.76
74218;BME280;62579;47.288;18.646;2023-04-24T12:16:57;98822.94;;;21.32;47.86
74218;BME280;62579;47.288;18.646;2023-04-24T13:31:02;98840.63;;;18.43;61.37
74218;BME280;62579;47.288;18.646;2023-04-24T13:33:28;98835.97;;;18.36;60.91
74218;BME280;62579;47.288;18.646;2023-04-24T13:35:53;98832.75;;;18.30;61.00
74218;BME280;62579;47.288;18.646;2023-04-24T13:38:18;98827.09;;;18.37;61.93
74218;BME280;62579;47.288;18.646;2023-04-24T13:40:46;98827.47;;;18.15;61.41
74218;BME280;62579;47.288;18.646;2023-04-24T13:43:11;98835.81;;;17.80;62.71
74218;BME280;62579;47.288;18.646;2023-04-24T13:45:37;98831.62;;;17.79;63.39
74218;BME280;62579;47.288;18.646;2023-04-24T13:48:02;98833.78;;;17.81;63.74
74218;BME280;62579;47.288;18.646;2023-04-24T13:50:28;98842.75;;;17.55;64.16
74218;BME280;62579;47.288;18.646;2023-04-24T13:52:53;98828.38;;;17.73;64.34
74218;BME280;62579;47.288;18.646;2023-04-24T13:55:19;98832.06;;;17.41;63.66
74218;BME280;62579;47.288;18.646;2023-04-24T13:57:44;98842.50;;;17.26;64.75
74218;BME280;62579;47.288;18.646;2023-04-24T14:00:09;98826.66;;;17.34;65.23